Time;durP1;ratioP1;P1;durP2;ratioP2;P2;SDS_P1;SDS_P2;PMS_P1;PMS_P2;Temp;Humidity;BMP_temperature;BMP_pressure;BME280_temperature;BME280_humidity;BME280_pressure;Samples;Min_cycle;Max_cycle;Signal;HPM_P1;HPM_P2
2024/03/01 00:02:10;;;;;;;157.10;66.50;;;;;;;7.06;100.00;98753.43;272514;1270;23516;-89
2024/03/01 00:08:12;;;;;;;200.40;68.70;;;;;;;7.05;100.00;98750.98;272358;1270;22304;-88
2024/03/01 00:14:14;;;;;;;189.90;67.70;;;;;;;7.02;100.00;98750.53;272391;1268;22537;-89
2024/03/01 00:20:16;;;;;;;150.90;65.70;;;;;;;6.96;100.00;98742.73;272555;1270;22204;-89
2024/03/01 00:26:18;;;;;;;186.10;68.80;;;;;;;6.93;100.00;98727.86;272452;1270;22690;-90
2024/03/01 00:32:20;;;;;;;169.40;67.20;;;;;;;6.91;100.00;98720.59;270277;1271;22538;-88
2024/03/01 00:38:22;;;;;;;166.90;67.70;;;;;;;6.92;100.00;98717.42;269644;1270;22286;-89
2024/03/01 00:44:24;;;;;;;161.50;68.60;;;;;;;6.93;100.00;98719.02;272428;1270;22179;-89
2024/03/01 00:50:26;;;;;;;156.10;71.10;;;;;;;6.96;100.00;98715.89;272644;1271;22185;-89
2024/03/01 00:56:28;;;;;;;144.30;65.10;;;;;;;6.95;100.00;98705.77;272652;1266;23842;-89
2024/03/01 01:02:30;;;;;;;169.10;65.70;;;;;;;6.94;100.00;98708.61;272517;1270;22160;-88
2024/03/01 01:08:33;;;;;;;155.40;67.60;;;;;;;6.94;100.00;98696.16;272578;1270;22323;-89
2024/03/01 01:14:35;;;;;;;157.70;66.00;;;;;;;6.95;100.00;98690.90;272392;1270;22193;-89
2024/03/01 01:20:37;;;;;;;163.70;67.20;;;;;;;6.94;100.00;98677.59;272544;1270;22392;-90
2024/03/01 01:26:39;;;;;;;193.20;69.20;;;;;;;6.92;100.00;98667.84;272446;1270;22306;-89
2024/03/01 01:32:41;;;;;;;193.20;69.00;;;;;;;6.94;100.00;98661.20;272359;1270;22903;-89
2024/03/01 01:38:43;;;;;;;156.60;64.90;;;;;;;6.91;100.00;98652.10;272497;1271;22675;-89
2024/03/01 01:44:46;;;;;;;169.50;64.10;;;;;;;6.90;100.00;98643.06;272529;1270;22592;-91
2024/03/01 01:50:49;;;;;;;180.20;66.80;;;;;;;6.83;100.00;98645.42;271980;1271;22566;-90
2024/03/01 01:56:50;;;;;;;151.40;62.30;;;;;;;6.76;100.00;98639.52;271124;1271;22302;-89
2024/03/01 02:02:53;;;;;;;142.30;61.80;;;;;;;6.70;100.00;98631.70;269755;1270;22542;-91
2024/03/01 02:08:55;;;;;;;152.30;63.20;;;;;;;6.68;100.00;98630.98;270634;1270;22651;-90
2024/03/01 02:14:58;;;;;;;139.40;62.00;;;;;;;6.63;100.00;98632.35;272300;1271;23519;-90
2024/03/01 02:21:05;;;;;;;154.30;62.70;;;;;;;6.59;100.00;98617.50;272434;1271;22313;-90
2024/03/01 02:27:08;;;;;;;144.00;60.20;;;;;;;6.52;100.00;98605.77;271648;1270;22620;-90
2024/03/01 02:33:13;;;;;;;181.60;58.60;;;;;;;6.44;100.00;98591.23;271534;1252;78118;-90
2024/03/01 02:39:18;;;;;;;149.30;58.60;;;;;;;6.35;100.00;98595.40;270097;1272;22513;-91
2024/03/01 02:45:28;;;;;;;163.40;60.00;;;;;;;6.23;100.00;98595.52;269926;1271;23138;-92
2024/03/01 02:51:32;;;;;;;186.60;59.70;;;;;;;6.13;100.00;98590.73;269837;1272;22998;-91
2024/03/01 02:57:50;;;;;;;166.70;57.10;;;;;;;6.11;100.00;98584.30;270254;1267;22606;-91
2024/03/01 03:03:57;;;;;;;152.40;61.20;;;;;;;6.05;100.00;98581.92;270216;1271;26573;-91
2024/03/01 03:10:02;;;;;;;154.90;58.70;;;;;;;6.02;100.00;98578.13;270212;1271;22556;-91
2024/03/01 03:16:07;;;;;;;137.40;58.80;;;;;;;6.03;100.00;98567.98;270177;1270;22607;-92
2024/03/01 03:22:29;;;;;;;131.90;57.50;;;;;;;6.00;100.00;98560.85;272665;1270;22391;-92
2024/03/01 03:28:31;;;;;;;148.70;59.00;;;;;;;5.92;100.00;98556.02;272421;1270;22432;-91
2024/03/01 03:34:34;;;;;;;149.20;64.30;;;;;;;5.91;100.00;98563.36;272643;1271;22241;-93
2024/03/01 03:40:44;;;;;;;148.30;64.10;;;;;;;5.91;100.00;98559.33;272622;1270;23036;-93
2024/03/01 03:46:48;;;;;;;157.90;64.10;;;;;;;5.89;100.00;98560.06;270118;1270;22667;-92
2024/03/01 03:52:52;;;;;;;146.00;60.20;;;;;;;5.89;100.00;98555.93;270218;1270;22665;-92
2024/03/01 03:58:54;;;;;;;140.20;55.40;;;;;;;5.82;100.00;98561.52;270089;1270;23278;-92
2024/03/01 04:04:58;;;;;;;148.20;61.20;;;;;;;5.73;100.00;98565.95;270268;1270;22550;-92
2024/03/01 04:11:05;;;;;;;152.20;60.40;;;;;;;5.70;100.00;98569.06;269978;1270;22523;-92
2024/03/01 04:17:12;;;;;;;146.70;61.60;;;;;;;5.67;100.00;98573.09;269853;1270;22504;-92
2024/03/01 04:23:15;;;;;;;136.80;50.80;;;;;;;5.66;100.00;98567.10;269768;1270;22576;-92
2024/03/01 04:29:17;;;;;;;121.50;52.10;;;;;;;5.61;100.00;98572.57;270258;1270;22569;-92
2024/03/01 04:35:20;;;;;;;136.20;54.90;;;;;;;5.61;100.00;98573.04;270326;1271;24226;-92
2024/03/01 04:41:26;;;;;;;124.00;51.40;;;;;;;5.62;100.00;98571.20;270296;1270;23786;-91
2024/03/01 04:47:29;;;;;;;154.00;52.90;;;;;;;5.56;100.00;98569.13;270190;1270;23190;-92
2024/03/01 04:53:32;;;;;;;149.20;55.10;;;;;;;5.56;100.00;98567.34;269637;1270;357021;-92
2024/03/01 04:59:42;;;;;;;134.50;54.10;;;;;;;5.53;100.00;98549.90;269911;1270;23897;-91
2024/03/01 05:05:45;;;;;;;120.40;57.30;;;;;;;5.50;100.00;98534.30;269597;1270;22547;-91
2024/03/01 05:11:47;;;;;;;131.90;59.80;;;;;;;5.50;100.00;98536.70;269927;1270;22537;-92
2024/03/01 05:17:57;;;;;;;117.90;57.70;;;;;;;5.50;100.00;98541.66;270011;1264;24132;-92
2024/03/01 05:24:00;;;;;;;176.80;63.20;;;;;;;5.48;100.00;98553.32;269823;1270;23874;-90
2024/03/01 05:30:03;;;;;;;137.90;58.40;;;;;;;5.46;100.00;98561.66;269918;1270;22544;-91
2024/03/01 05:36:08;;;;;;;150.30;56.60;;;;;;;5.43;100.00;98565.09;269851;1270;22576;-89
2024/03/01 05:42:31;;;;;;;164.90;60.60;;;;;;;5.43;100.00;98561.81;269779;1270;22562;-90
2024/03/01 05:48:36;;;;;;;134.00;57.30;;;;;;;5.40;100.00;98567.71;269395;1270;22543;-89
2024/03/01 05:54:41;;;;;;;148.40;61.60;;;;;;;5.40;100.00;98584.95;269458;1270;25278;-90
2024/03/01 06:00:44;;;;;;;134.00;58.10;;;;;;;5.42;100.00;98594.63;269391;1270;23391;-89
2024/03/01 06:06:49;;;;;;;117.40;53.40;;;;;;;5.41;100.00;98603.43;270408;1270;22532;-89
2024/03/01 06:12:52;;;;;;;112.70;55.20;;;;;;;5.36;100.00;98595.84;269613;1270;25301;-89
2024/03/01 06:18:58;;;;;;;163.90;55.00;;;;;;;5.36;100.00;98576.14;269881;1270;22515;-90
2024/03/01 06:25:02;;;;;;;155.40;57.70;;;;;;;5.33;100.00;98567.02;270259;1270;25300;-90
2024/03/01 06:31:08;;;;;;;148.20;57.30;;;;;;;5.37;100.00;98556.09;270231;1270;24385;-91
2024/03/01 06:37:20;;;;;;;145.50;58.20;;;;;;;5.42;100.00;98571.02;270006;1271;22523;-91
2024/03/01 06:43:23;;;;;;;183.80;57.80;;;;;;;5.38;100.00;98576.05;269707;1271;22563;-91
2024/03/01 06:49:25;;;;;;;149.50;56.00;;;;;;;5.34;100.00;98570.05;269603;1273;22537;-91
2024/03/01 06:55:32;;;;;;;151.80;60.50;;;;;;;5.33;100.00;98558.30;270107;1271;23536;-90
2024/03/01 07:01:37;;;;;;;128.90;54.50;;;;;;;5.37;100.00;98555.23;269648;1272;22524;-91
2024/03/01 07:07:40;;;;;;;179.10;67.00;;;;;;;5.44;100.00;98554.94;269686;1271;22613;-91
2024/03/01 07:13:57;;;;;;;122.30;58.30;;;;;;;5.44;100.00;98560.22;269914;1272;22553;-91
2024/03/01 07:20:00;;;;;;;138.10;61.20;;;;;;;5.46;100.00;98564.84;270028;1271;24211;-91
2024/03/01 07:26:03;;;;;;;122.90;60.40;;;;;;;5.51;100.00;98567.84;270109;1271;22551;-91
2024/03/01 07:32:29;;;;;;;131.40;60.60;;;;;;;5.56;100.00;98573.52;269816;1271;22525;-91
2024/03/01 07:38:41;;;;;;;131.50;64.80;;;;;;;5.63;100.00;98572.55;269944;1270;22555;-90
2024/03/01 07:44:48;;;;;;;134.00;62.50;;;;;;;5.73;100.00;98562.39;270103;1271;22575;-90
2024/03/01 07:50:55;;;;;;;129.40;63.60;;;;;;;5.85;100.00;98557.39;269813;1270;25024;-90
2024/03/01 07:57:02;;;;;;;132.70;67.20;;;;;;;5.97;100.00;98550.39;272326;1270;22572;-90
2024/03/01 08:03:11;;;;;;;133.60;68.10;;;;;;;6.07;100.00;98557.14;270556;1270;22532;-91
2024/03/01 08:09:36;;;;;;;132.30;66.60;;;;;;;6.10;100.00;98569.45;270555;1270;26660;-90
2024/03/01 08:15:57;;;;;;;129.60;68.90;;;;;;;6.13;100.00;98556.63;264184;1300;545115;-90
2024/03/01 08:22:09;;;;;;;146.90;71.70;;;;;;;6.24;100.00;98546.77;268950;1281;23293;-90
2024/03/01 08:28:13;;;;;;;138.00;70.50;;;;;;;6.37;100.00;98540.98;268858;1278;517901;-90
2024/03/01 08:34:41;;;;;;;130.80;66.70;;;;;;;6.51;100.00;98540.79;268754;1278;25290;-90
2024/03/01 08:40:57;;;;;;;127.20;67.10;;;;;;;6.64;100.00;98542.61;269024;1279;22538;-89
2024/03/01 08:47:01;;;;;;;136.30;68.90;;;;;;;6.73;100.00;98533.76;269191;1278;22541;-90
2024/03/01 08:53:32;;;;;;;132.90;68.00;;;;;;;6.91;100.00;98526.79;268823;1278;22569;-90
2024/03/01 08:59:49;;;;;;;122.00;64.70;;;;;;;7.02;100.00;98539.51;268759;1278;22511;-90
2024/03/01 09:05:56;;;;;;;134.50;69.10;;;;;;;7.09;100.00;98531.70;268884;1277;22560;-90
2024/03/01 09:12:00;;;;;;;127.80;67.30;;;;;;;7.22;100.00;98519.93;268839;1278;25288;-90
2024/03/01 09:18:05;;;;;;;121.90;65.10;;;;;;;7.36;100.00;98528.33;268650;1279;22555;-90
2024/03/01 09:24:17;;;;;;;115.20;61.30;;;;;;;7.49;100.00;98523.27;268652;1277;22540;-90
2024/03/01 09:30:22;;;;;;;110.20;59.80;;;;;;;7.54;100.00;98546.20;268526;1278;22482;-90
2024/03/01 09:36:27;;;;;;;118.50;63.80;;;;;;;7.48;100.00;98556.16;268806;1277;22803;-90
2024/03/01 09:42:48;;;;;;;113.50;62.60;;;;;;;7.48;100.00;98557.95;268661;1277;22563;-90
2024/03/01 09:49:37;;;;;;;116.10;62.00;;;;;;;7.58;100.00;98555.77;268618;1277;22556;-90
2024/03/01 09:56:05;;;;;;;107.30;60.00;;;;;;;7.68;100.00;98546.36;268653;1278;22543;-91
2024/03/01 10:03:01;;;;;;;111.40;60.90;;;;;;;7.82;100.00;98541.73;268548;1278;22508;-91
2024/03/01 10:09:13;;;;;;;108.60;59.00;;;;;;;7.99;100.00;98530.61;269722;1275;25294;-91
2024/03/01 10:15:56;;;;;;;112.10;61.70;;;;;;;8.14;100.00;98518.43;269695;1275;22573;-91
2024/03/01 10:22:18;;;;;;;114.70;61.30;;;;;;;8.26;100.00;98507.94;270324;1270;22522;-89
2024/03/01 10:29:03;;;;;;;104.40;62.30;;;;;;;8.35;100.00;98505.25;270918;1271;22213;-91
2024/03/01 10:35:11;;;;;;;107.30;62.60;;;;;;;8.40;100.00;98507.64;270453;1268;22662;-92
2024/03/01 10:41:54;;;;;;;101.90;59.50;;;;;;;8.46;100.00;98512.16;270369;1267;22545;-92
2024/03/01 10:47:58;;;;;;;95.20;57.80;;;;;;;8.61;100.00;98498.53;270693;1266;22554;-90
2024/03/01 10:54:07;;;;;;;105.30;60.90;;;;;;;8.78;100.00;98505.25;270201;1266;23090;-91
2024/03/01 11:00:12;;;;;;;99.60;59.30;;;;;;;9.01;100.00;98496.50;270562;1267;22504;-91
2024/03/01 11:06:56;;;;;;;93.40;56.00;;;;;;;9.38;100.00;98487.45;270940;1266;22535;-90
2024/03/01 11:13:15;;;;;;;88.40;53.60;;;;;;;9.69;100.00;98470.35;271197;1267;22636;-91
2024/03/01 11:25:22;;;;;;;80.80;48.10;;;;;;;10.35;100.00;98448.35;265006;1298;544876;-90
2024/03/01 11:31:29;;;;;;;75.20;47.40;;;;;;;10.73;100.00;98445.86;272166;1273;22433;-89
2024/03/01 11:37:58;;;;;;;77.40;47.40;;;;;;;11.09;100.00;98449.41;271091;1271;204629;-88
2024/03/01 11:44:23;;;;;;;71.30;44.80;;;;;;;11.46;100.00;98449.17;270445;1271;22448;-88
2024/03/01 11:50:37;;;;;;;63.40;40.60;;;;;;;11.71;100.00;98444.98;272372;1270;22406;-88
2024/03/01 11:56:53;;;;;;;68.50;43.80;;;;;;;11.80;100.00;98437.30;272003;1270;23437;-88
2024/03/01 12:03:08;;;;;;;65.80;39.30;;;;;;;11.89;100.00;98433.20;272018;1270;22610;-87
2024/03/01 12:09:21;;;;;;;73.40;44.20;;;;;;;12.08;100.00;98424.60;273268;1265;22399;-88
2024/03/01 12:15:31;;;;;;;60.10;39.20;;;;;;;12.12;100.00;98424.34;272150;1265;22618;-89
2024/03/01 12:21:45;;;;;;;61.90;39.50;;;;;;;12.25;100.00;98427.66;270475;1265;22534;-90
2024/03/01 12:28:01;;;;;;;57.50;38.90;;;;;;;12.41;100.00;98414.16;272478;1265;22401;-90
2024/03/01 12:34:36;;;;;;;61.00;36.20;;;;;;;12.52;100.00;98411.27;273085;1257;22460;-89
2024/03/01 12:40:46;;;;;;;57.80;38.30;;;;;;;12.53;100.00;98405.30;273089;1265;22358;-89
2024/03/01 12:47:14;;;;;;;64.90;39.50;;;;;;;12.53;100.00;98404.44;273369;1265;23691;-90
2024/03/01 12:53:32;;;;;;;57.10;35.70;;;;;;;12.47;100.00;98400.87;273430;1265;22461;-88
2024/03/01 12:59:53;;;;;;;58.20;39.10;;;;;;;12.42;100.00;98395.10;273385;1265;22225;-88
2024/03/01 13:05:55;;;;;;;63.90;39.10;;;;;;;12.34;100.00;98395.46;273337;1265;22438;-89
2024/03/01 13:12:01;;;;;;;63.90;41.40;;;;;;;12.28;100.00;98388.45;273198;1265;22327;-90
2024/03/01 13:18:12;;;;;;;65.80;41.50;;;;;;;12.26;100.00;98387.52;273440;1265;22276;-89
2024/03/01 13:24:36;;;;;;;76.70;44.50;;;;;;;12.17;100.00;98396.88;273289;1259;24760;-89
2024/03/01 13:30:39;;;;;;;75.80;45.20;;;;;;;12.06;100.00;98399.05;271453;1265;22886;-89
2024/03/01 13:36:41;;;;;;;69.60;43.00;;;;;;;11.90;100.00;98405.94;272739;1265;22598;-89
2024/03/01 13:42:48;;;;;;;72.40;43.20;;;;;;;11.78;100.00;98405.66;271241;1265;22408;-89
2024/03/01 13:48:51;;;;;;;70.10;43.00;;;;;;;11.66;100.00;98408.52;273388;1265;22372;-89
2024/03/01 13:54:53;;;;;;;73.00;43.40;;;;;;;11.60;100.00;98406.23;273444;1263;22401;-89
2024/03/01 14:00:56;;;;;;;79.00;46.30;;;;;;;11.50;100.00;98400.61;273494;1265;22681;-88
2024/03/01 14:06:58;;;;;;;75.50;45.10;;;;;;;11.37;100.00;98392.34;273439;1265;22257;-88
2024/03/01 14:13:00;;;;;;;84.40;47.40;;;;;;;11.25;100.00;98390.64;272492;1265;22358;-89
2024/03/01 14:19:02;;;;;;;81.70;46.40;;;;;;;11.11;100.00;98390.33;273508;1265;23180;-88
2024/03/01 14:25:13;;;;;;;82.80;46.50;;;;;;;11.00;100.00;98382.35;273524;1265;22359;-90
2024/03/01 14:31:19;;;;;;;82.10;45.00;;;;;;;10.92;100.00;98380.64;273433;1265;22343;-89
2024/03/01 14:37:28;;;;;;;79.20;48.20;;;;;;;10.87;100.00;98379.06;273515;1265;23575;-89
2024/03/01 14:43:44;;;;;;;76.00;45.30;;;;;;;10.83;100.00;98378.60;272762;1265;22712;-89
2024/03/01 14:49:57;;;;;;;83.50;49.20;;;;;;;10.83;100.00;98382.29;270800;1265;22528;-89
2024/03/01 14:56:05;;;;;;;81.20;46.70;;;;;;;10.78;100.00;98380.63;271352;1266;25434;-90
2024/03/01 15:02:16;;;;;;;78.80;47.40;;;;;;;10.73;100.00;98386.27;271311;1265;22377;-89
2024/03/01 15:08:20;;;;;;;83.80;47.90;;;;;;;10.70;100.00;98386.19;272462;1265;23564;-89
2024/03/01 15:14:42;;;;;;;88.20;48.60;;;;;;;10.68;100.00;98383.61;272842;1265;22506;-91
2024/03/01 15:20:44;;;;;;;90.70;52.80;;;;;;;10.64;100.00;98383.27;273397;1265;22505;-89
2024/03/01 15:27:10;;;;;;;95.60;53.80;;;;;;;10.61;100.00;98381.17;273356;1265;22376;-92
2024/03/01 15:33:29;;;;;;;88.40;50.70;;;;;;;10.57;100.00;98376.01;273596;1266;23009;-90
2024/03/01 15:39:49;;;;;;;96.30;53.00;;;;;;;10.52;100.00;98372.48;273294;1265;22444;-90
2024/03/01 15:46:50;;;;;;;;;;;;;;;;;;;;;
2024/03/01 15:53:37;;;;;;;93.10;48.20;;;;;;;10.37;100.00;98376.52;273541;1258;22468;-90
2024/03/01 15:59:42;;;;;;;90.10;48.10;;;;;;;10.35;100.00;98379.02;273238;1265;23656;-90
2024/03/01 16:06:27;;;;;;;;;;;;;;;;;;;;;
2024/03/01 16:13:24;;;;;;;91.30;49.50;;;;;;;10.14;100.00;98370.77;272510;1265;22581;-89
2024/03/01 16:19:52;;;;;;;85.30;47.30;;;;;;;10.03;100.00;98375.16;271662;1257;23033;-88
2024/03/01 16:26:50;;;;;;;86.50;47.90;;;;;;;9.96;100.00;98386.91;271627;1265;22495;-89
2024/03/01 16:33:30;;;;;;;77.40;43.40;;;;;;;9.91;100.00;98391.73;271929;1265;22420;-89
2024/03/01 16:39:51;;;;;;;80.80;46.60;;;;;;;9.85;100.00;98394.45;272919;1265;23163;-90
2024/03/01 16:46:31;;;;;;;77.30;42.50;;;;;;;9.80;100.00;98401.38;273079;1266;22490;-90
2024/03/01 16:52:33;;;;;;;85.50;45.30;;;;;;;9.75;100.00;98405.73;273139;1265;22478;-88
2024/03/01 16:58:59;;;;;;;;;;;;;;;;;;;;;
2024/03/01 17:05:49;;;;;;;;;;;;;;;;;;;;;
2024/03/01 17:12:24;;;;;;;83.20;44.00;;;;;;;9.53;100.00;98402.27;273352;1260;22470;-90
2024/03/01 17:18:45;;;;;;;80.70;44.40;;;;;;;9.47;100.00;98402.07;273237;1265;22895;-88
2024/03/01 17:26:03;;;;;;;;;;;;;;;;;;;;;
2024/03/01 17:34:01;;;;;;;;;;;;;;;;;;;;;
2024/03/01 17:40:56;;;;;;;87.80;49.00;;;;;;;9.22;100.00;98414.63;271830;1267;22406;-89
2024/03/01 17:47:22;;;;;;;78.00;44.10;;;;;;;9.15;100.00;98411.38;272813;1267;22447;-89
2024/03/01 17:54:03;;;;;;;78.90;44.00;;;;;;;9.08;100.00;98420.91;273362;1266;22844;-89
2024/03/01 18:00:45;;;;;;;94.70;49.40;;;;;;;9.02;100.00;98432.04;273478;1266;23805;-90
2024/03/01 18:07:45;;;;;;;;;;;;;;;;;;;;;
2024/03/01 18:14:15;;;;;;;83.70;43.60;;;;;;;8.89;100.00;98437.84;273011;1266;22380;-91
2024/03/01 18:20:42;;;;;;;86.50;44.40;;;;;;;8.84;100.00;98437.16;273865;1267;22906;-89
2024/03/01 18:27:20;;;;;;;;;;;;;;;;;;;;;
2024/03/01 18:34:22;;;;;;;86.70;46.00;;;;;;;8.73;100.00;98437.30;273368;1266;22431;-89
2024/03/01 18:40:48;;;;;;;84.30;44.30;;;;;;;8.66;100.00;98435.43;271843;1266;22575;-89
2024/03/01 18:47:33;;;;;;;;;;;;;;;8.60;100.00;98433.81;272221;1266;22658;-89
2024/03/01 18:53:44;;;;;;;90.50;46.00;;;;;;;8.54;100.00;98435.63;257154;1267;20001885;-88
2024/03/01 18:59:49;;;;;;;93.80;47.70;;;;;;;8.49;100.00;98433.55;272648;1266;22177;-88
2024/03/01 19:06:09;;;;;;;86.90;44.30;;;;;;;8.39;100.00;98430.95;272262;1266;22537;-90
2024/03/01 19:12:31;;;;;;;90.50;47.30;;;;;;;8.29;100.00;98425.30;271417;1266;22537;-89
2024/03/01 19:18:58;;;;;;;88.20;44.40;;;;;;;8.19;100.00;98423.54;271309;1267;23278;-89
2024/03/01 19:25:25;;;;;;;84.80;44.30;;;;;;;8.09;100.00;98436.51;271898;1266;22391;-89
2024/03/01 19:32:01;;;;;;;90.20;45.50;;;;;;;8.01;100.00;98449.97;273483;1265;22175;-93
2024/03/01 19:38:20;;;;;;;88.80;45.10;;;;;;;8.02;100.00;98452.54;273375;1266;22570;-88
2024/03/01 19:45:32;;;;;;;88.70;45.40;;;;;;;8.00;100.00;98449.95;273268;1266;22480;-88
2024/03/01 19:51:56;;;;;;;91.80;45.30;;;;;;;7.96;100.00;98455.20;273812;1266;22199;-90
2024/03/01 19:58:20;;;;;;;94.80;46.70;;;;;;;7.96;100.00;98463.30;273315;1266;23087;-88
2024/03/01 20:04:25;;;;;;;90.50;46.10;;;;;;;7.95;100.00;98463.42;273201;1266;22316;-90
2024/03/01 20:10:42;;;;;;;94.30;46.90;;;;;;;7.94;100.00;98470.89;273232;1266;23604;-89
2024/03/01 20:16:45;;;;;;;100.70;48.10;;;;;;;7.91;100.00;98470.70;272939;1266;23124;-88
2024/03/01 20:22:51;;;;;;;93.40;48.40;;;;;;;7.89;100.00;98468.59;271298;1266;22668;-90
2024/03/01 20:28:57;;;;;;;86.60;45.70;;;;;;;7.86;100.00;98465.41;271125;1267;23634;-88
2024/03/01 20:34:59;;;;;;;91.10;44.20;;;;;;;7.83;100.00;98463.81;272643;1266;22226;-88
2024/03/01 20:41:02;;;;;;;95.20;47.60;;;;;;;7.80;100.00;98461.06;272033;1266;22194;-88
2024/03/01 20:47:11;;;;;;;94.50;46.60;;;;;;;7.75;100.00;98453.59;273121;1266;22443;-89
2024/03/01 20:53:16;;;;;;;92.60;46.10;;;;;;;7.70;100.00;98442.25;273083;1266;23495;-87
2024/03/01 20:59:18;;;;;;;101.40;50.40;;;;;;;7.63;100.00;98447.90;273427;1266;22408;-88
2024/03/01 21:05:20;;;;;;;97.10;46.10;;;;;;;7.56;100.00;98454.02;272965;1266;22190;-89
2024/03/01 21:11:24;;;;;;;92.80;46.30;;;;;;;7.49;100.00;98453.84;273008;1267;22168;-88
2024/03/01 21:17:26;;;;;;;97.40;47.40;;;;;;;7.42;100.00;98452.49;273205;1266;23812;-88
2024/03/01 21:23:28;;;;;;;97.50;47.10;;;;;;;7.33;100.00;98451.52;273137;1266;22454;-88
2024/03/01 21:29:30;;;;;;;94.30;46.60;;;;;;;7.24;100.00;98448.42;271888;1266;22658;-88
2024/03/01 21:35:36;;;;;;;94.00;44.60;;;;;;;7.14;100.00;98447.33;272945;1266;22378;-88
2024/03/01 21:41:38;;;;;;;93.10;45.00;;;;;;;7.00;100.00;98455.80;273017;1266;22545;-87
2024/03/01 21:47:43;;;;;;;95.20;46.10;;;;;;;6.92;100.00;98450.61;273067;1266;22861;-88
2024/03/01 21:53:48;;;;;;;97.50;47.00;;;;;;;6.84;100.00;98448.55;271735;1266;22618;-88
2024/03/01 21:59:54;;;;;;;92.30;47.10;;;;;;;6.77;100.00;98445.30;271358;1266;23634;-88
2024/03/01 22:05:56;;;;;;;92.00;45.20;;;;;;;6.67;100.00;98445.89;271245;1266;22565;-88
2024/03/01 22:11:58;;;;;;;99.60;46.50;;;;;;;6.51;100.00;98443.84;271285;1266;23201;-88
2024/03/01 22:18:01;;;;;;;106.50;48.10;;;;;;;6.43;100.00;98429.95;271114;1266;22842;-90
2024/03/01 22:24:03;;;;;;;85.10;44.20;;;;;;;6.35;100.00;98421.88;273067;1266;23514;-89
2024/03/01 22:30:06;;;;;;;114.70;52.80;;;;;;;6.22;100.00;98417.91;273033;1266;22428;-89
2024/03/01 22:36:08;;;;;;;103.00;48.40;;;;;;;6.12;100.00;98412.98;273421;1266;22218;-88
2024/03/01 22:42:12;;;;;;;98.40;48.70;;;;;;;6.06;100.00;98431.56;272837;1266;22199;-88
2024/03/01 22:48:14;;;;;;;95.30;47.30;;;;;;;5.99;100.00;98436.31;273360;1267;22353;-89
2024/03/01 22:54:23;;;;;;;92.00;45.30;;;;;;;5.93;100.00;98432.23;273338;1266;22273;-88
2024/03/01 23:00:40;;;;;;;101.20;50.00;;;;;;;5.91;100.00;98433.90;273326;1266;23940;-89
2024/03/01 23:06:43;;;;;;;101.70;50.90;;;;;;;5.89;100.00;98441.63;272952;1266;22218;-88
2024/03/01 23:12:47;;;;;;;106.30;51.00;;;;;;;5.89;100.00;98443.09;272816;1266;22634;-89
2024/03/01 23:18:50;;;;;;;98.70;49.20;;;;;;;5.89;100.00;98431.21;270224;1266;23761;-88
2024/03/01 23:24:54;;;;;;;95.20;49.50;;;;;;;5.86;100.00;98422.09;270343;1267;22719;-88
2024/03/01 23:30:56;;;;;;;107.00;50.50;;;;;;;5.76;100.00;98420.38;273845;1266;22243;-87
2024/03/01 23:36:58;;;;;;;94.80;48.90;;;;;;;5.69;100.00;98418.22;273096;1266;269438;-88
2024/03/01 23:43:01;;;;;;;97.90;49.00;;;;;;;5.64;100.00;98416.45;273221;1267;22402;-88
2024/03/01 23:49:05;;;;;;;103.70;53.10;;;;;;;5.62;100.00;98427.53;273303;1265;22202;-89
2024/03/01 23:55:21;;;;;;;102.00;51.90;;;;;;;5.63;100.00;98435.52;273294;1267;23610;-88
